Time;durP1;ratioP1;P1;durP2;ratioP2;P2;SDS_P1;SDS_P2;PMS_P1;PMS_P2;Temp;Humidity;BMP_temperature;BMP_pressure;BME280_temperature;BME280_humidity;BME280_pressure;Samples;Min_cycle;Max_cycle;Signal;HPM_P1;HPM_P2
2021/07/22 00:01:54;;;;;;;;;50.75;41.25;;;;;24.63;78.67;100152.28;5098420;28;8848;-79
2021/07/22 00:04:49;;;;;;;;;28.75;22.75;;;;;24.78;77.57;100157.59;5116016;28;8840;-79
2021/07/22 00:07:46;;;;;;;;;26.75;25.75;;;;;24.62;77.68;100155.53;5116117;28;8817;-79
2021/07/22 00:10:41;;;;;;;;;21.25;20.50;;;;;24.54;77.93;100160.56;5102977;28;8867;-79
2021/07/22 00:13:37;;;;;;;;;20.25;20.00;;;;;24.44;78.49;100155.94;5104481;28;8976;-78
2021/07/22 00:16:32;;;;;;;;;19.00;19.00;;;;;24.39;78.89;100154.44;5096256;28;8877;-79
2021/07/22 00:19:28;;;;;;;;;16.20;15.80;;;;;24.58;77.91;100160.47;5096350;28;8814;-80
2021/07/22 00:22:24;;;;;;;;;14.00;14.00;;;;;24.43;78.14;100148.69;5094306;28;8844;-79
2021/07/22 00:25:20;;;;;;;;;14.00;14.00;;;;;24.50;77.10;100156.22;5101387;28;9734;-78
2021/07/22 00:28:15;;;;;;;;;13.20;13.20;;;;;24.43;77.87;100157.19;5115435;28;8906;-79
2021/07/22 00:31:11;;;;;;;;;13.80;13.80;;;;;24.42;77.53;100154.78;5115501;28;8821;-79
2021/07/22 00:34:06;;;;;;;;;14.60;14.60;;;;;24.31;77.98;100160.66;5115548;28;8834;-79
2021/07/22 00:37:02;;;;;;;;;14.40;14.40;;;;;24.33;77.75;100159.03;5094986;28;8823;-79
2021/07/22 00:39:58;;;;;;;;;16.75;16.75;;;;;24.22;78.27;100152.75;5095113;28;8862;-78
2021/07/22 00:43:02;;;;;;;;;16.75;16.75;;;;;24.18;77.95;100160.53;5099764;28;9558;-78
2021/07/22 00:45:57;;;;;;;;;17.25;17.25;;;;;24.26;78.12;100158.34;5113521;28;8825;-79
2021/07/22 00:48:53;;;;;;;;;19.25;19.25;;;;;24.40;77.35;100149.59;5111037;28;8831;-79
2021/07/22 00:51:49;;;;;;;;;19.00;17.75;;;;;24.42;77.11;100146.31;5094707;28;8900;-78
2021/07/22 00:54:44;;;;;;;;;17.50;17.50;;;;;24.30;77.37;100150.56;5094742;28;8900;-79
2021/07/22 00:57:40;;;;;;;;;17.60;17.60;;;;;24.37;77.81;100156.09;5094444;28;8912;-79
2021/07/22 01:00:36;;;;;;;;;19.00;19.00;;;;;24.29;77.53;100160.28;5094610;28;9626;-80
2021/07/22 01:03:31;;;;;;;;;18.00;18.00;;;;;24.34;77.77;100151.34;5096005;28;8838;-79
2021/07/22 01:06:27;;;;;;;;;20.75;20.75;;;;;24.35;77.22;100156.53;5095638;28;8845;-80
2021/07/22 01:09:22;;;;;;;;;18.50;16.75;;;;;24.19;78.41;100158.50;5094116;28;8855;-79
2021/07/22 01:12:18;;;;;;;;;21.75;18.25;;;;;24.05;78.57;100156.78;5094062;28;8831;-79
2021/07/22 01:15:14;;;;;;;;;22.50;22.50;;;;;24.10;78.22;100154.25;5113823;28;8817;-79
2021/07/22 01:18:09;;;;;;;;;23.50;23.00;;;;;24.31;77.70;100161.47;5114956;28;8864;-79
2021/07/22 01:21:07;;;;;;;;;22.25;22.25;;;;;23.98;77.92;100162.56;5095065;28;8831;-80
2021/07/22 01:24:03;;;;;;;;;25.50;24.25;;;;;24.03;78.34;100168.50;5098914;28;8849;-79
2021/07/22 01:26:58;;;;;;;;;30.25;25.75;;;;;24.07;78.33;100168.44;5114326;28;8857;-78
2021/07/22 01:29:54;;;;;;;;;26.50;26.50;;;;;24.07;77.73;100166.41;5100782;28;8825;-79
2021/07/22 01:32:49;;;;;;;;;28.00;26.25;;;;;24.33;77.74;100189.31;5114986;28;8838;-79
2021/07/22 01:35:45;;;;;;;;;22.00;22.00;;;;;24.22;77.94;100188.69;5101345;28;8848;-79
2021/07/22 01:38:40;;;;;;;;;26.00;26.00;;;;;24.17;77.65;100192.06;5114405;28;8931;-78
2021/07/22 01:41:38;;;;;;;;;19.50;19.50;;;;;24.11;77.82;100191.75;5114769;28;8856;-79
2021/07/22 01:44:33;;;;;;;;;23.00;22.50;;;;;24.10;77.74;100193.78;5096029;28;8814;-79
2021/07/22 01:47:29;;;;;;;;;23.75;23.75;;;;;24.15;78.33;100192.47;5094395;28;8849;-79
2021/07/22 01:50:24;;;;;;;;;22.25;22.25;;;;;23.91;79.14;100190.97;5109511;28;8821;-78
2021/07/22 01:53:20;;;;;;;;;26.00;26.00;;;;;23.70;79.97;100186.56;5099623;28;8821;-79
2021/07/22 01:56:16;;;;;;;;;27.00;26.50;;;;;23.76;79.53;100194.06;5114317;28;8805;-79
2021/07/22 01:59:11;;;;;;;;;27.25;27.25;;;;;23.63;80.70;100203.63;5113575;28;8845;-79
2021/07/22 02:02:10;;;;;;;;;23.50;23.50;;;;;24.12;79.40;100202.63;5113690;28;8818;-79
2021/07/22 02:05:05;;;;;;;;;24.50;24.00;;;;;24.09;78.85;100192.19;5114570;28;8837;-80
2021/07/22 02:08:01;;;;;;;;;25.50;25.50;;;;;24.00;79.51;100210.94;5099783;28;9623;-79
2021/07/22 02:10:56;;;;;;;;;24.00;24.00;;;;;24.35;78.15;100209.44;5100072;28;8913;-79
2021/07/22 02:13:54;;;;;;;;;27.75;27.50;;;;;24.26;78.93;100212.03;5087956;28;8840;-79
2021/07/22 02:16:50;;;;;;;;;28.25;27.50;;;;;23.95;80.10;100219.94;5093097;28;8843;-78
2021/07/22 02:19:46;;;;;;;;;25.25;25.25;;;;;24.30;78.95;100224.84;5093243;28;9642;-78
2021/07/22 02:22:41;;;;;;;;;26.50;26.50;;;;;24.35;79.08;100221.53;5093395;28;8846;-78
2021/07/22 02:25:37;;;;;;;;;29.75;28.75;;;;;24.27;79.52;100225.72;5093664;28;8839;-79
2021/07/22 02:28:33;;;;;;;;;23.25;23.25;;;;;24.51;78.37;100232.09;5079342;28;8873;-78
2021/07/22 02:31:28;;;;;;;;;28.00;27.75;;;;;24.52;77.98;100233.69;5093072;28;8920;-78
2021/07/22 02:34:24;;;;;;;;;28.25;27.25;;;;;24.48;78.17;100243.50;5093037;28;9658;-78
2021/07/22 02:37:20;;;;;;;;;28.25;28.25;;;;;24.11;79.64;100229.28;5079425;28;8828;-79
2021/07/22 02:40:15;;;;;;;;;26.25;26.25;;;;;24.22;79.58;100234.69;5092897;28;8835;-78
2021/07/22 02:43:11;;;;;;;;;29.75;29.25;;;;;24.29;79.08;100234.53;5100777;28;9600;-78
2021/07/22 02:46:13;;;;;;;;;25.00;25.00;;;;;24.31;78.38;100234.13;5113404;28;8837;-79
2021/07/22 02:49:09;;;;;;;;;31.00;28.00;;;;;24.18;79.80;100241.66;5113193;28;8837;-79
2021/07/22 02:52:05;;;;;;;;;24.75;24.00;;;;;24.42;78.59;100243.19;5113046;28;8936;-78
2021/07/22 02:55:01;;;;;;;;;22.75;22.75;;;;;24.71;77.51;100249.03;5098258;28;8837;-78
2021/07/22 02:58:05;;;;;;;;;22.75;22.50;;;;;24.28;79.00;100246.28;5091438;28;8845;-78
2021/07/22 03:01:01;;;;;;;;;28.25;28.25;;;;;24.32;79.02;100250.69;5112430;28;8898;-80
2021/07/22 03:03:57;;;;;;;;;25.75;25.75;;;;;24.24;79.62;100251.22;5112712;28;8829;-78
2021/07/22 03:06:52;;;;;;;;;23.25;23.00;;;;;23.97;80.65;100257.81;5099235;28;8910;-79
2021/07/22 03:09:48;;;;;;;;;24.25;24.25;;;;;24.29;79.56;100259.19;5112654;28;8837;-79
2021/07/22 03:12:43;;;;;;;;;23.75;23.75;;;;;24.33;79.72;100266.41;5107695;28;8825;-79
2021/07/22 03:15:39;;;;;;;;;23.50;23.50;;;;;24.59;78.64;100264.63;5092943;28;9591;-78
2021/07/22 03:18:35;;;;;;;;;23.00;23.00;;;;;24.29;79.92;100257.16;5093041;28;8868;-78
2021/07/22 03:21:30;;;;;;;;;25.75;25.75;;;;;24.34;79.53;100258.72;5091060;28;8845;-78
2021/07/22 03:24:26;;;;;;;;;24.50;24.50;;;;;24.26;80.05;100260.06;5091222;28;8848;-78
2021/07/22 03:27:21;;;;;;;;;21.50;21.50;;;;;24.67;78.18;100268.09;5093138;28;8833;-78
2021/07/22 03:30:17;;;;;;;;;20.50;20.50;;;;;24.72;78.07;100258.31;5094294;28;8845;-78
2021/07/22 03:33:13;;;;;;;;;24.00;24.00;;;;;24.93;77.10;100266.31;5092950;28;8863;-78
2021/07/22 03:36:08;;;;;;;;;22.75;22.75;;;;;24.80;77.44;100263.34;5092396;28;8825;-80
2021/07/22 03:39:04;;;;;;;;;28.00;27.25;;;;;24.98;76.60;100270.63;5094745;28;8837;-79
2021/07/22 03:41:59;;;;;;;;;26.00;26.00;;;;;24.74;77.47;100261.47;5096675;28;8837;-79
2021/07/22 03:44:55;;;;;;;;;26.50;26.25;;;;;24.72;77.71;100258.31;5096312;28;8842;-78
2021/07/22 03:47:51;;;;;;;;;30.75;30.00;;;;;24.58;78.38;100257.38;5096091;28;8975;-78
2021/07/22 03:50:48;;;;;;;;;24.00;24.00;;;;;24.64;78.16;100246.34;5095959;28;8824;-79
2021/07/22 03:53:44;;;;;;;;;26.00;26.00;;;;;24.66;77.56;100252.38;5083079;28;8868;-78
2021/07/22 03:56:40;;;;;;;;;26.25;26.25;;;;;24.69;77.83;100245.84;5096433;28;8834;-79
2021/07/22 03:59:36;;;;;;;;;28.25;28.25;;;;;24.36;79.09;100234.44;5104307;28;8822;-78
2021/07/22 04:02:31;;;;;;;;;28.25;28.25;;;;;24.66;78.09;100241.84;5116436;28;8854;-78
2021/07/22 04:05:27;;;;;;;;;30.25;29.75;;;;;24.32;79.28;100241.38;5116772;28;8864;-79
2021/07/22 04:08:23;;;;;;;;;31.25;28.50;;;;;24.21;79.98;100250.06;5115924;28;8992;-78
2021/07/22 04:11:18;;;;;;;;;27.50;27.50;;;;;24.26;79.76;100251.59;5116172;28;8825;-79
2021/07/22 04:14:14;;;;;;;;;26.25;26.25;;;;;24.17;80.09;100254.19;5098111;28;8838;-79
2021/07/22 04:17:16;;;;;;;;;29.00;29.00;;;;;24.22;80.26;100254.47;5099776;28;8920;-79
2021/07/22 04:20:12;;;;;;;;;27.75;27.75;;;;;23.93;80.90;100253.47;5095672;28;8807;-79
2021/07/22 04:23:07;;;;;;;;;26.50;25.25;;;;;24.17;80.28;100257.03;5095207;28;8819;-79
2021/07/22 04:26:03;;;;;;;;;25.25;25.00;;;;;24.13;80.26;100260.69;5081662;28;8852;-78
2021/07/22 04:28:59;;;;;;;;;29.50;29.50;;;;;23.88;80.77;100260.41;5095604;28;8823;-78
2021/07/22 04:31:54;;;;;;;;;36.25;32.00;;;;;23.58;82.52;100264.94;5117470;28;8818;-79
2021/07/22 04:34:50;;;;;;;;;33.75;31.75;;;;;23.57;82.35;100271.81;5115773;28;8813;-79
2021/07/22 04:37:45;;;;;;;;;27.50;26.75;;;;;23.79;82.21;100266.63;5115137;28;8897;-78
2021/07/22 04:40:41;;;;;;;;;33.25;30.50;;;;;23.54;81.31;100269.88;5115730;28;8860;-78
2021/07/22 04:43:37;;;;;;;;;32.50;30.50;;;;;23.85;80.45;100269.75;5115465;28;8930;-79
2021/07/22 04:46:32;;;;;;;;;32.25;30.00;;;;;23.69;80.71;100280.91;5115135;28;8817;-78
2021/07/22 04:49:28;;;;;;;;;28.50;26.75;;;;;23.77;80.83;100276.72;5114981;28;8826;-78
2021/07/22 04:52:23;;;;;;;;;34.00;31.75;;;;;23.76;80.27;100281.56;5108791;28;8917;-78
2021/07/22 04:55:19;;;;;;;;;30.50;29.50;;;;;23.96;79.87;100284.44;5115036;28;8821;-79
2021/07/22 04:58:14;;;;;;;;;26.50;26.50;;;;;24.36;78.60;100284.50;5114923;28;8863;-78
2021/07/22 05:01:10;;;;;;;;;30.00;29.25;;;;;23.92;78.48;100291.38;5100712;28;9567;-78
2021/07/22 05:04:06;;;;;;;;;28.50;28.50;;;;;23.73;79.60;100285.28;5113752;28;8842;-78
2021/07/22 05:07:03;;;;;;;;;25.00;25.00;;;;;23.88;78.85;100285.03;5115256;28;8833;-77
2021/07/22 05:09:58;;;;;;;;;27.25;27.25;;;;;23.66;79.29;100276.13;5114655;28;9671;-78
2021/07/22 05:13:01;;;;;;;;;26.25;26.25;;;;;23.88;78.46;100285.81;5101068;28;8830;-78
2021/07/22 05:15:58;;;;;;;;;27.50;27.50;;;;;24.09;77.57;100288.25;5100519;28;8825;-78
2021/07/22 05:18:54;;;;;;;;;27.00;27.00;;;;;24.16;76.55;100283.69;5093226;28;8860;-77
2021/07/22 05:21:49;;;;;;;;;31.25;30.00;;;;;23.96;77.26;100287.28;5094868;28;8825;-78
2021/07/22 05:24:45;;;;;;;;;30.50;27.75;;;;;23.68;78.04;100290.63;5094820;28;8848;-78
2021/07/22 05:27:40;;;;;;;;;28.50;28.50;;;;;23.93;78.03;100290.19;5095195;28;8829;-78
2021/07/22 05:30:36;;;;;;;;;27.25;26.25;;;;;23.92;76.97;100294.22;5096734;28;8829;-77
2021/07/22 05:33:32;;;;;;;;;25.25;25.25;;;;;23.57;77.58;100290.78;5094787;28;8826;-77
2021/07/22 05:36:27;;;;;;;;;27.00;27.00;;;;;23.70;78.15;100296.66;5098898;28;8813;-78
2021/07/22 05:39:23;;;;;;;;;26.75;25.75;;;;;23.73;77.60;100301.41;5094116;28;8911;-78
2021/07/22 05:42:18;;;;;;;;;22.25;22.00;;;;;23.62;76.93;100301.63;5100661;28;8891;-78
2021/07/22 05:45:14;;;;;;;;;26.50;24.50;;;;;23.88;76.88;100310.44;5101051;28;8803;-77
2021/07/22 05:48:10;;;;;;;;;25.50;25.50;;;;;23.72;76.77;100309.09;5113964;28;8954;-78
2021/07/22 05:51:05;;;;;;;;;19.25;19.25;;;;;23.68;77.24;100310.38;5112436;28;8811;-78
2021/07/22 05:54:01;;;;;;;;;22.25;22.25;;;;;23.36;77.72;100303.22;5093616;28;8817;-77
2021/07/22 05:56:56;;;;;;;;;24.25;24.00;;;;;23.53;77.55;100309.78;5106519;28;8850;-77
2021/07/22 05:59:52;;;;;;;;;26.00;23.75;;;;;23.51;77.82;100301.75;5103411;28;8807;-79
2021/07/22 06:02:48;;;;;;;;;23.00;22.25;;;;;23.22;79.16;100307.03;5105115;28;8961;-79
2021/07/22 06:05:44;;;;;;;;;25.50;25.50;;;;;23.58;78.40;100315.75;5113682;28;8929;-77
2021/07/22 06:08:40;;;;;;;;;25.25;25.00;;;;;23.67;77.20;100312.41;5112491;28;8847;-77
2021/07/22 06:11:36;;;;;;;;;22.50;21.50;;;;;23.90;76.78;100314.41;5110746;28;9551;-78
2021/07/22 06:14:32;;;;;;;;;23.25;23.25;;;;;23.61;77.39;100321.78;5094602;28;8817;-75
2021/07/22 06:17:27;;;;;;;;;26.75;26.25;;;;;23.39;78.20;100310.84;5111861;28;8829;-76
2021/07/22 06:20:23;;;;;;;;;22.50;22.50;;;;;23.38;77.64;100314.06;5108409;28;8935;-77
2021/07/22 06:23:19;;;;;;;;;29.75;26.25;;;;;23.51;77.73;100329.19;5093572;28;8829;-76
2021/07/22 06:26:15;;;;;;;;;25.00;24.00;;;;;23.52;77.82;100328.75;5093010;28;8836;-75
2021/07/22 06:29:12;;;;;;;;;23.25;23.25;;;;;23.48;77.63;100322.38;5097026;28;8803;-77
2021/07/22 06:32:08;;;;;;;;;26.00;25.00;;;;;23.68;76.94;100327.31;5099703;27;8803;-75
2021/07/22 06:35:04;;;;;;;;;24.75;24.75;;;;;23.49;77.59;100328.81;5113089;28;8867;-76
2021/07/22 06:38:00;;;;;;;;;26.00;26.00;;;;;23.36;77.85;100331.44;5112195;28;8843;-75
2021/07/22 06:40:58;;;;;;;;;27.75;26.50;;;;;23.69;78.12;100331.72;5113797;28;8839;-76
2021/07/22 06:43:54;;;;;;;;;14.75;14.75;;;;;23.60;77.53;100323.81;5112952;28;8826;-76
2021/07/22 06:46:49;;;;;;;;;25.75;25.75;;;;;23.61;77.13;100322.56;5106002;28;8839;-74
2021/07/22 06:49:45;;;;;;;;;29.00;29.00;;;;;23.73;77.49;100318.34;5107882;28;9624;-76
2021/07/22 06:52:41;;;;;;;;;26.00;25.75;;;;;23.87;77.11;100326.59;5112757;28;8845;-76
2021/07/22 06:55:36;;;;;;;;;24.75;24.75;;;;;23.41;77.12;100330.94;5098903;28;8850;-75
2021/07/22 06:58:32;;;;;;;;;23.75;23.00;;;;;23.79;77.06;100328.72;5110319;28;8839;-76
2021/07/22 07:01:29;;;;;;;;;24.50;24.50;;;;;23.97;76.95;100342.53;5098991;28;8821;-76
2021/07/22 07:04:24;;;;;;;;;24.75;24.75;;;;;24.18;75.58;100326.41;5090164;28;8921;-77
2021/07/22 07:07:21;;;;;;;;;22.00;22.00;;;;;23.76;76.67;100328.78;5112710;28;8807;-76
2021/07/22 07:10:17;;;;;;;;;25.25;25.00;;;;;23.95;76.09;100322.41;5112723;28;9595;-75
2021/07/22 07:13:13;;;;;;;;;23.00;23.00;;;;;23.80;76.28;100332.34;5111208;28;9897;-75
2021/07/22 07:16:08;;;;;;;;;25.25;25.25;;;;;24.05;74.99;100331.91;5110571;28;8831;-76
2021/07/22 07:19:07;;;;;;;;;25.75;25.00;;;;;23.67;76.17;100320.06;5110967;27;8832;-75
2021/07/22 07:22:03;;;;;;;;;23.50;23.50;;;;;23.91;75.56;100324.47;5132087;27;8823;-76
2021/07/22 07:24:58;;;;;;;;;24.75;24.50;;;;;23.46;75.79;100312.72;5115173;28;8839;-74
2021/07/22 07:27:55;;;;;;;;;24.25;24.25;;;;;23.74;75.79;100331.25;5089906;28;8849;-76
2021/07/22 07:30:51;;;;;;;;;27.75;27.50;;;;;24.01;75.08;100329.16;5099682;28;8879;-75
2021/07/22 07:33:47;;;;;;;;;27.75;27.50;;;;;24.37;73.98;100325.66;5098771;28;8837;-75
2021/07/22 07:36:44;;;;;;;;;26.25;26.00;;;;;24.52;73.01;100326.97;5110447;28;8825;-75
2021/07/22 07:39:39;;;;;;;;;23.00;23.00;;;;;24.51;72.37;100322.53;5083480;28;8835;-75
2021/07/22 07:42:37;;;;;;;;;25.00;25.00;;;;;24.29;73.06;100324.16;5111772;28;8845;-77
2021/07/22 07:45:32;;;;;;;;;23.00;23.00;;;;;24.55;73.23;100319.66;5112174;28;8841;-77
2021/07/22 07:48:28;;;;;;;;;24.75;24.75;;;;;24.68;72.12;100323.41;5097908;28;8912;-77
2021/07/22 07:51:24;;;;;;;;;21.75;21.75;;;;;24.98;71.46;100322.34;5091923;28;8866;-76
2021/07/22 07:54:22;;;;;;;;;22.60;22.60;;;;;24.93;70.55;100320.84;5091785;28;8912;-76
2021/07/22 07:57:17;;;;;;;;;21.40;21.40;;;;;24.74;71.86;100329.34;5091515;28;8970;-76
2021/07/22 08:00:14;;;;;;;;;23.25;23.25;;;;;24.82;71.14;100322.28;5091261;28;8836;-75
2021/07/22 08:03:18;;;;;;;;;23.00;23.00;;;;;24.83;70.12;100329.53;5077753;28;8861;-76
2021/07/22 08:06:14;;;;;;;;;23.60;23.60;;;;;25.05;69.85;100335.56;5091469;28;8851;-76
2021/07/22 08:09:09;;;;;;;;;21.40;21.40;;;;;25.30;69.27;100347.09;5091263;28;8835;-77
2021/07/22 08:12:06;;;;;;;;;21.80;21.80;;;;;25.50;68.84;100347.81;5091514;28;8835;-76
2021/07/22 08:15:04;;;;;;;;;21.20;21.20;;;;;25.30;67.46;100349.13;5091572;28;8889;-76
2021/07/22 08:18:00;;;;;;;;;22.40;22.40;;;;;25.04;68.41;100353.78;5090966;28;8859;-76
2021/07/22 08:20:55;;;;;;;;;22.20;22.20;;;;;25.08;68.82;100349.63;5107945;28;8813;-74
2021/07/22 08:23:51;;;;;;;;;18.80;18.60;;;;;25.32;68.20;100352.31;5111184;28;8841;-76
2021/07/22 08:26:46;;;;;;;;;23.00;23.00;;;;;24.99;68.48;100359.91;5115464;28;8829;-76
2021/07/22 08:29:42;;;;;;;;;23.00;22.20;;;;;25.10;68.58;100357.69;5101915;28;8817;-77
2021/07/22 08:32:38;;;;;;;;;23.60;23.60;;;;;25.28;68.21;100360.09;5101832;28;8860;-76
2021/07/22 08:35:33;;;;;;;;;21.60;21.40;;;;;25.21;68.13;100361.06;5115590;28;8985;-75
2021/07/22 08:38:29;;;;;;;;;24.00;24.00;;;;;25.26;68.28;100357.72;5115238;28;8817;-76
2021/07/22 08:41:24;;;;;;;;;22.20;22.20;;;;;25.00;68.42;100355.84;5115343;28;9641;-77
2021/07/22 08:44:20;;;;;;;;;23.80;22.80;;;;;24.92;67.59;100367.34;5101542;28;8834;-77
2021/07/22 08:47:16;;;;;;;;;19.40;19.40;;;;;25.14;68.00;100364.03;5115449;28;8821;-76
2021/07/22 08:50:13;;;;;;;;;19.80;19.80;;;;;24.90;67.54;100374.66;5112855;28;8813;-75
2021/07/22 08:53:10;;;;;;;;;20.80;20.80;;;;;25.15;67.26;100363.63;5114792;28;9049;-75
2021/07/22 08:56:08;;;;;;;;;21.20;21.20;;;;;24.78;67.58;100378.16;5115077;28;8841;-75
2021/07/22 08:59:03;;;;;;;;;19.40;19.40;;;;;24.36;68.13;100364.41;5114778;28;8877;-75
2021/07/22 09:02:00;;;;;;;;;25.20;25.20;;;;;24.58;67.70;100364.81;5114807;28;8837;-75
2021/07/22 09:04:57;;;;;;;;;19.00;19.00;;;;;24.41;67.95;100380.09;5114505;28;8848;-77
2021/07/22 09:07:52;;;;;;;;;20.20;20.20;;;;;24.52;67.57;100368.56;5115244;28;8872;-74
2021/07/22 09:11:08;;;;;;;;;23.50;23.50;;;;;24.84;68.37;100365.88;5115050;28;8822;-74
2021/07/22 09:14:08;;;;;;;;;20.60;20.60;;;;;25.18;66.69;100367.59;5114805;28;8861;-75
2021/07/22 09:17:04;;;;;;;;;20.60;20.60;;;;;24.82;67.46;100367.53;5112638;28;8865;-78
2021/07/22 09:20:00;;;;;;;;;24.80;24.80;;;;;25.22;66.95;100363.44;5092620;28;8854;-78
2021/07/22 09:22:58;;;;;;;;;20.00;20.00;;;;;25.43;66.81;100362.16;5108379;28;8826;-78
2021/07/22 09:25:55;;;;;;;;;23.80;23.00;;;;;25.44;65.18;100362.94;5094199;28;8879;-78
2021/07/22 09:29:03;;;;;;;;;20.20;20.20;;;;;25.50;64.15;100356.31;5101561;28;8827;-78
2021/07/22 09:32:05;;;;;;;;;21.20;21.20;;;;;25.60;65.54;100362.94;5113192;28;8823;-78
2021/07/22 09:35:13;;;;;;;;;21.20;21.20;;;;;25.69;64.58;100362.34;5080476;28;8847;-79
2021/07/22 09:38:10;;;;;;;;;16.00;16.00;;;;;25.64;65.17;100354.38;5096679;28;9576;-77
2021/07/22 09:41:17;;;;;;;;;20.40;20.40;;;;;26.10;63.87;100346.75;5092521;28;8878;-77
2021/07/22 09:44:43;;;;;;;;;16.00;16.00;;;;;26.05;64.65;100351.72;5094432;28;9675;-79
2021/07/22 09:47:40;;;;;;;;;16.40;16.40;;;;;26.34;62.74;100348.91;5093828;28;8866;-77
2021/07/22 09:50:43;;;;;;;;;22.20;22.20;;;;;26.50;61.92;100352.94;5079968;28;8831;-78
2021/07/22 09:53:39;;;;;;;;;17.80;17.80;;;;;26.64;61.79;100346.09;5089948;28;8826;-78
2021/07/22 09:56:38;;;;;;;;;17.20;17.20;;;;;26.86;61.10;100347.03;5109275;28;8832;-78
2021/07/22 09:59:34;;;;;;;;;17.80;17.80;;;;;26.79;61.01;100345.22;5094678;28;8853;-78
2021/07/22 10:02:30;;;;;;;;;18.00;17.80;;;;;26.40;60.14;100360.53;5093893;28;8834;-78
2021/07/22 10:05:32;;;;;;;;;15.20;15.20;;;;;26.43;59.37;100353.16;5088595;28;8811;-78
2021/07/22 10:08:31;;;;;;;;;16.20;16.20;;;;;26.53;60.60;100358.53;5093778;28;8996;-78
2021/07/22 10:11:26;;;;;;;;;15.20;13.60;;;;;26.23;59.13;100354.06;5079681;28;8835;-78
2021/07/22 10:14:26;;;;;;;;;14.20;14.20;;;;;26.36;61.76;100353.31;5093149;28;9605;-78
2021/07/22 10:17:35;;;;;;;;;14.20;14.20;;;;;26.23;60.48;100341.94;5082329;28;8984;-76
2021/07/22 10:20:33;;;;;;;;;15.00;15.00;;;;;25.92;60.65;100345.19;5091779;28;8812;-78
2021/07/22 10:23:30;;;;;;;;;11.20;11.20;;;;;26.18;60.04;100343.28;5099073;28;8841;-77
2021/07/22 10:26:26;;;;;;;;;18.20;18.00;;;;;26.33;59.11;100346.50;5102343;28;8848;-77
2021/07/22 10:29:21;;;;;;;;;18.60;18.60;;;;;26.54;60.78;100330.97;5089310;28;8848;-77
2021/07/22 10:32:19;;;;;;;;;12.20;12.20;;;;;26.84;59.90;100335.38;5099031;28;8902;-77
2021/07/22 10:35:25;;;;;;;;;16.80;16.00;;;;;26.74;59.48;100334.41;5092657;28;8835;-77
2021/07/22 10:38:23;;;;;;;;;17.60;17.60;;;;;27.10;58.48;100351.19;5095192;28;8837;-77
2021/07/22 10:41:39;;;;;;;;;19.80;19.40;;;;;26.55;58.89;100352.41;5092331;28;8890;-77
2021/07/22 10:44:34;;;;;;;;;13.40;13.40;;;;;26.50;58.25;100367.13;5063266;28;8858;-79
2021/07/22 10:47:59;;;;;;;;;12.40;12.40;;;;;26.20;58.27;100351.31;5071798;28;8823;-78
2021/07/22 10:50:54;;;;;;;;;9.00;9.00;;;;;26.21;58.74;100359.38;5072084;28;8865;-76
2021/07/22 10:53:51;;;;;;;;;10.40;10.40;;;;;26.41;57.76;100361.31;5084852;28;8954;-78
2021/07/22 10:56:51;;;;;;;;;16.40;16.40;;;;;26.58;58.84;100365.69;5071821;28;8838;-79
2021/07/22 10:59:56;;;;;;;;;11.20;11.20;;;;;26.19;56.56;100367.53;5084378;28;8852;-81
2021/07/22 11:02:53;;;;;;;;;6.20;6.20;;;;;26.12;56.33;100362.06;5087273;28;8849;-78
2021/07/22 11:05:49;;;;;;;;;9.80;9.80;;;;;26.47;56.64;100366.00;5074081;28;8847;-79
2021/07/22 11:08:44;;;;;;;;;15.40;15.40;;;;;26.25;55.88;100367.78;5084359;28;8822;-77
2021/07/22 11:11:47;;;;;;;;;23.20;23.20;;;;;26.64;56.58;100360.25;5089297;28;8876;-78
2021/07/22 11:14:43;;;;;;;;;35.50;32.50;;;;;26.71;56.17;100355.19;5089907;28;8809;-79
2021/07/22 11:17:39;;;;;;;;;37.25;32.50;;;;;26.85;55.88;100359.66;5093337;28;8846;-78
2021/07/22 11:20:35;;;;;;;;;11.40;11.40;;;;;26.76;50.22;100353.81;5111090;28;8830;-77
2021/07/22 11:23:32;;;;;;;;;8.60;8.60;;;;;26.68;50.35;100333.38;5091804;28;8841;-77
2021/07/22 11:26:33;;;;;;;;;8.60;8.60;;;;;27.50;49.65;100332.91;5082502;28;8840;-77
2021/07/22 11:29:28;;;;;;;;;11.80;11.80;;;;;27.87;50.14;100348.31;5073784;28;8843;-78
2021/07/22 11:32:25;;;;;;;;;11.20;11.20;;;;;27.86;50.55;100352.41;5071908;28;8839;-78
2021/07/22 11:35:21;;;;;;;;;4.80;4.80;;;;;28.11;49.77;100348.69;5082340;28;8822;-76
2021/07/22 11:38:18;;;;;;;;;8.80;8.80;;;;;27.83;49.37;100344.78;5090975;28;8856;-77
2021/07/22 11:41:14;;;;;;;;;9.80;9.80;;;;;28.49;50.07;100332.31;5084902;28;8986;-77
2021/07/22 11:44:10;;;;;;;;;11.00;11.00;;;;;28.76;48.09;100336.59;5091800;28;8847;-79
2021/07/22 11:47:11;;;;;;;;;11.60;11.60;;;;;28.83;47.02;100344.03;5091986;28;9599;-77
2021/07/22 11:50:07;;;;;;;;;11.00;11.00;;;;;29.11;46.12;100330.78;5091085;28;8849;-77
2021/07/22 11:53:20;;;;;;;;;9.60;9.60;;;;;29.25;46.11;100333.88;5091808;28;8859;-78
2021/07/22 11:56:18;;;;;;;;;11.00;10.80;;;;;29.47;43.89;100328.09;5067854;28;8904;-77
2021/07/22 11:59:15;;;;;;;;;11.00;11.00;;;;;29.54;43.83;100327.03;5094962;28;8921;-78
2021/07/22 12:02:16;;;;;;;;;10.40;10.40;;;;;29.71;43.72;100330.41;5083779;28;8847;-77
2021/07/22 12:05:21;;;;;;;;;10.00;10.00;;;;;30.22;43.59;100324.94;5095719;28;8936;-77
2021/07/22 12:08:18;;;;;;;;;7.00;7.00;;;;;29.91;42.62;100319.34;5095507;28;8847;-78
2021/07/22 12:11:14;;;;;;;;;9.60;9.60;;;;;29.27;43.27;100327.69;5095424;28;8851;-76
2021/07/22 12:14:10;;;;;;;;;9.00;9.00;;;;;29.42;44.14;100331.53;5094543;28;8836;-77
2021/07/22 12:17:10;;;;;;;;;11.40;11.40;;;;;29.72;44.24;100344.16;5095032;28;9033;-75
2021/07/22 12:20:08;;;;;;;;;10.40;10.40;;;;;29.20;44.81;100336.53;5096199;28;9628;-76
2021/07/22 12:23:27;;;;;;;;;9.60;9.60;;;;;29.82;44.59;100347.81;5100361;28;8950;-78
2021/07/22 12:26:23;;;;;;;;;10.40;10.40;;;;;29.72;44.30;100346.22;5092954;28;8847;-78
2021/07/22 12:29:19;;;;;;;;;12.00;12.00;;;;;29.42;45.33;100359.25;5104246;28;9026;-79
2021/07/22 12:32:14;;;;;;;;;10.80;10.80;;;;;28.78;46.17;100366.16;5092806;28;8866;-77
2021/07/22 12:35:10;;;;;;;;;13.20;13.20;;;;;28.84;47.01;100362.72;5084913;28;8825;-80
2021/07/22 12:38:24;;;;;;;;;9.40;9.40;;;;;28.91;46.41;100371.00;5095060;28;8835;-78
2021/07/22 12:41:26;;;;;;;;;8.80;8.80;;;;;28.66;47.76;100380.47;5097434;28;8876;-78
2021/07/22 12:44:50;;;;;;;;;12.00;12.00;;;;;28.29;46.25;100388.66;5102930;28;8853;-79
2021/07/22 12:47:48;;;;;;;;;10.20;10.20;;;;;28.03;47.31;100367.25;5101131;28;9562;-77
2021/07/22 12:50:50;;;;;;;;;12.00;11.40;;;;;27.83;47.95;100367.53;5101967;28;8849;-78
2021/07/22 12:53:47;;;;;;;;;35.60;26.60;;;;;27.89;48.80;100375.00;5098489;28;8847;-79
2021/07/22 12:56:43;;;;;;;;;9.80;9.80;;;;;27.77;49.07;100384.38;5101698;28;8918;-78
2021/07/22 12:59:38;;;;;;;;;11.20;11.20;;;;;27.59;49.00;100376.38;5101087;28;9634;-78
2021/07/22 13:02:36;;;;;;;;;10.80;10.80;;;;;27.94;50.32;100385.03;5100215;28;8843;-77
2021/07/22 13:05:18;;;;;;;;;10.00;10.00;;;;;27.83;50.07;100379.69;5109339;28;8923;-79
2021/07/22 13:08:16;;;;;;;;;13.40;13.40;;;;;27.69;49.47;100374.50;5111516;28;8837;-77
2021/07/22 13:11:13;;;;;;;;;28.20;28.00;;;;;27.87;49.79;100385.25;5114346;28;8833;-79
2021/07/22 13:14:09;;;;;;;;;12.40;11.60;;;;;27.74;49.61;100390.94;5095634;28;8841;-79
2021/07/22 13:17:07;;;;;;;;;12.20;12.20;;;;;27.35;49.63;100384.47;5093659;28;8865;-79
2021/07/22 13:20:03;;;;;;;;;11.00;11.00;;;;;27.66;49.86;100386.72;5094304;28;9582;-78
2021/07/22 13:22:59;;;;;;;;;13.80;13.80;;;;;27.77;49.75;100386.41;5108842;28;8817;-78
2021/07/22 13:25:54;;;;;;;;;14.40;14.40;;;;;27.67;48.85;100394.81;5104810;28;8865;-79
2021/07/22 13:28:50;;;;;;;;;15.60;15.60;;;;;27.44;50.30;100389.47;5106386;28;8848;-77
2021/07/22 13:31:46;;;;;;;;;9.60;9.60;;;;;27.27;50.04;100400.13;5112984;28;8923;-76
2021/07/22 13:34:41;;;;;;;;;12.60;12.60;;;;;27.28;49.50;100401.72;5099081;28;8831;-78
2021/07/22 13:37:38;;;;;;;;;13.00;13.00;;;;;27.19;49.07;100390.25;5093787;28;8936;-76